sensor_id;sensor_type;location;lat;lon;timestamp;P1;durP1;ratioP1;P2;durP2;ratioP2
25341;SDS011;13298;48.792;9.154;2023-07-02T00:01:09;4.88;;;3.55;;
25341;SDS011;13298;48.792;9.154;2023-07-02T00:03:37;4.82;;;3.67;;
25341;SDS011;13298;48.792;9.154;2023-07-02T00:06:08;4.60;;;3.78;;
25341;SDS011;13298;48.792;9.154;2023-07-02T00:08:34;4.35;;;3.38;;
25341;SDS011;13298;48.792;9.154;2023-07-02T00:11:00;5.75;;;3.97;;
25341;SDS011;13298;48.792;9.154;2023-07-02T00:13:25;5.60;;;3.72;;
25341;SDS011;13298;48.792;9.154;2023-07-02T00:15:51;5.03;;;3.67;;
25341;SDS011;13298;48.792;9.154;2023-07-02T00:18:17;3.75;;;3.33;;
25341;SDS011;13298;48.792;9.154;2023-07-02T00:20:43;3.78;;;3.45;;
25341;SDS011;13298;48.792;9.154;2023-07-02T00:23:09;4.63;;;3.75;;
25341;SDS011;13298;48.792;9.154;2023-07-02T00:25:35;4.32;;;3.47;;
25341;SDS011;13298;48.792;9.154;2023-07-02T00:28:01;4.63;;;3.83;;
25341;SDS011;13298;48.792;9.154;2023-07-02T00:30:27;7.05;;;3.90;;
25341;SDS011;13298;48.792;9.154;2023-07-02T00:32:53;4.47;;;3.58;;
25341;SDS011;13298;48.792;9.154;2023-07-02T00:35:19;4.57;;;3.85;;
25341;SDS011;13298;48.792;9.154;2023-07-02T00:37:44;4.03;;;3.40;;
25341;SDS011;13298;48.792;9.154;2023-07-02T00:40:10;4.05;;;3.65;;
25341;SDS011;13298;48.792;9.154;2023-07-02T00:42:36;7.40;;;3.83;;
25341;SDS011;13298;48.792;9.154;2023-07-02T00:45:02;4.57;;;3.40;;
25341;SDS011;13298;48.792;9.154;2023-07-02T00:47:29;4.03;;;3.10;;
25341;SDS011;13298;48.792;9.154;2023-07-02T00:49:58;4.85;;;3.83;;
25341;SDS011;13298;48.792;9.154;2023-07-02T00:52:24;5.43;;;3.90;;
25341;SDS011;13298;48.792;9.154;2023-07-02T00:54:51;4.40;;;3.70;;
25341;SDS011;13298;48.792;9.154;2023-07-02T00:57:16;5.05;;;3.65;;
25341;SDS011;13298;48.792;9.154;2023-07-02T00:59:43;4.00;;;3.53;;
25341;SDS011;13298;48.792;9.154;2023-07-02T01:02:08;4.28;;;3.38;;
25341;SDS011;13298;48.792;9.154;2023-07-02T01:04:35;4.85;;;3.30;;
25341;SDS011;13298;48.792;9.154;2023-07-02T01:07:02;4.20;;;3.20;;
25341;SDS011;13298;48.792;9.154;2023-07-02T01:09:33;5.05;;;3.30;;
25341;SDS011;13298;48.792;9.154;2023-07-02T01:12:00;7.10;;;3.60;;
25341;SDS011;13298;48.792;9.154;2023-07-02T01:14:30;5.93;;;3.17;;
25341;SDS011;13298;48.792;9.154;2023-07-02T01:16:59;5.18;;;3.20;;
25341;SDS011;13298;48.792;9.154;2023-07-02T01:19:33;4.15;;;3.28;;
25341;SDS011;13298;48.792;9.154;2023-07-02T01:22:09;5.50;;;3.10;;
25341;SDS011;13298;48.792;9.154;2023-07-02T01:24:36;4.95;;;3.00;;
25341;SDS011;13298;48.792;9.154;2023-07-02T01:27:04;6.45;;;2.92;;
25341;SDS011;13298;48.792;9.154;2023-07-02T01:29:30;3.80;;;3.22;;
25341;SDS011;13298;48.792;9.154;2023-07-02T01:31:56;4.38;;;3.28;;
25341;SDS011;13298;48.792;9.154;2023-07-02T01:34:22;3.50;;;3.20;;
25341;SDS011;13298;48.792;9.154;2023-07-02T01:36:48;4.32;;;3.05;;
25341;SDS011;13298;48.792;9.154;2023-07-02T01:39:14;4.50;;;3.53;;
25341;SDS011;13298;48.792;9.154;2023-07-02T01:41:50;4.25;;;3.13;;
25341;SDS011;13298;48.792;9.154;2023-07-02T01:44:18;4.38;;;3.05;;
25341;SDS011;13298;48.792;9.154;2023-07-02T01:46:44;4.40;;;3.03;;
25341;SDS011;13298;48.792;9.154;2023-07-02T01:49:14;5.57;;;3.38;;
25341;SDS011;13298;48.792;9.154;2023-07-02T01:51:44;4.45;;;3.00;;
25341;SDS011;13298;48.792;9.154;2023-07-02T01:54:14;2.85;;;2.63;;
25341;SDS011;13298;48.792;9.154;2023-07-02T01:56:39;3.70;;;3.20;;
25341;SDS011;13298;48.792;9.154;2023-07-02T01:59:05;5.00;;;3.35;;
25341;SDS011;13298;48.792;9.154;2023-07-02T02:01:31;5.20;;;3.03;;
25341;SDS011;13298;48.792;9.154;2023-07-02T02:03:57;3.35;;;3.05;;
25341;SDS011;13298;48.792;9.154;2023-07-02T02:06:23;8.10;;;3.40;;
25341;SDS011;13298;48.792;9.154;2023-07-02T02:08:49;4.20;;;3.50;;
25341;SDS011;13298;48.792;9.154;2023-07-02T02:11:15;7.30;;;3.70;;
25341;SDS011;13298;48.792;9.154;2023-07-02T02:13:41;5.15;;;3.08;;
25341;SDS011;13298;48.792;9.154;2023-07-02T02:16:06;4.22;;;3.20;;
25341;SDS011;13298;48.792;9.154;2023-07-02T02:18:32;3.78;;;2.90;;
25341;SDS011;13298;48.792;9.154;2023-07-02T02:20:58;3.80;;;2.92;;
25341;SDS011;13298;48.792;9.154;2023-07-02T02:23:23;4.88;;;2.83;;
25341;SDS011;13298;48.792;9.154;2023-07-02T02:25:49;4.68;;;2.78;;
25341;SDS011;13298;48.792;9.154;2023-07-02T02:28:15;3.25;;;2.67;;
25341;SDS011;13298;48.792;9.154;2023-07-02T02:30:40;2.88;;;2.30;;
25341;SDS011;13298;48.792;9.154;2023-07-02T02:33:06;2.97;;;2.42;;
25341;SDS011;13298;48.792;9.154;2023-07-02T02:35:32;3.65;;;2.70;;
25341;SDS011;13298;48.792;9.154;2023-07-02T02:37:57;2.67;;;2.47;;
25341;SDS011;13298;48.792;9.154;2023-07-02T02:40:27;3.55;;;2.80;;
25341;SDS011;13298;48.792;9.154;2023-07-02T02:42:53;3.72;;;2.75;;
25341;SDS011;13298;48.792;9.154;2023-07-02T02:45:19;3.67;;;2.92;;
25341;SDS011;13298;48.792;9.154;2023-07-02T02:47:45;3.38;;;2.70;;
25341;SDS011;13298;48.792;9.154;2023-07-02T02:50:12;4.32;;;3.20;;
25341;SDS011;13298;48.792;9.154;2023-07-02T02:52:38;6.57;;;2.90;;
25341;SDS011;13298;48.792;9.154;2023-07-02T02:55:05;9.32;;;3.25;;
25341;SDS011;13298;48.792;9.154;2023-07-02T02:57:32;9.93;;;3.10;;
25341;SDS011;13298;48.792;9.154;2023-07-02T02:59:59;5.32;;;2.75;;
25341;SDS011;13298;48.792;9.154;2023-07-02T03:02:24;4.40;;;3.05;;
25341;SDS011;13298;48.792;9.154;2023-07-02T03:04:50;5.10;;;2.97;;
25341;SDS011;13298;48.792;9.154;2023-07-02T03:07:16;6.00;;;2.80;;
25341;SDS011;13298;48.792;9.154;2023-07-02T03:09:42;4.00;;;3.00;;
25341;SDS011;13298;48.792;9.154;2023-07-02T03:12:08;6.38;;;3.25;;
25341;SDS011;13298;48.792;9.154;2023-07-02T03:14:34;5.15;;;2.50;;
25341;SDS011;13298;48.792;9.154;2023-07-02T03:17:00;4.78;;;2.95;;
25341;SDS011;13298;48.792;9.154;2023-07-02T03:19:26;5.60;;;2.90;;
25341;SDS011;13298;48.792;9.154;2023-07-02T03:21:51;4.90;;;3.10;;
25341;SDS011;13298;48.792;9.154;2023-07-02T03:24:17;3.78;;;2.63;;
25341;SDS011;13298;48.792;9.154;2023-07-02T03:26:43;7.82;;;3.22;;
25341;SDS011;13298;48.792;9.154;2023-07-02T03:29:09;3.72;;;3.33;;
25341;SDS011;13298;48.792;9.154;2023-07-02T03:31:36;4.30;;;3.05;;
25341;SDS011;13298;48.792;9.154;2023-07-02T03:34:03;4.88;;;4.15;;
25341;SDS011;13298;48.792;9.154;2023-07-02T03:36:34;6.95;;;3.78;;
25341;SDS011;13298;48.792;9.154;2023-07-02T03:39:00;5.07;;;3.40;;
25341;SDS011;13298;48.792;9.154;2023-07-02T03:41:25;8.23;;;3.90;;
25341;SDS011;13298;48.792;9.154;2023-07-02T03:43:51;7.50;;;3.70;;
25341;SDS011;13298;48.792;9.154;2023-07-02T03:46:17;5.80;;;3.40;;
25341;SDS011;13298;48.792;9.154;2023-07-02T03:48:43;3.60;;;3.30;;
25341;SDS011;13298;48.792;9.154;2023-07-02T03:51:08;6.10;;;4.10;;
25341;SDS011;13298;48.792;9.154;2023-07-02T03:53:37;6.50;;;3.95;;
25341;SDS011;13298;48.792;9.154;2023-07-02T03:56:03;5.57;;;3.53;;
25341;SDS011;13298;48.792;9.154;2023-07-02T03:58:29;8.93;;;3.97;;
25341;SDS011;13298;48.792;9.154;2023-07-02T04:00:54;6.72;;;4.05;;
25341;SDS011;13298;48.792;9.154;2023-07-02T04:03:20;6.32;;;4.28;;
25341;SDS011;13298;48.792;9.154;2023-07-02T04:05:46;6.22;;;3.90;;
25341;SDS011;13298;48.792;9.154;2023-07-02T04:08:11;8.13;;;4.40;;
25341;SDS011;13298;48.792;9.154;2023-07-02T04:10:37;9.18;;;4.05;;
25341;SDS011;13298;48.792;9.154;2023-07-02T04:13:03;9.35;;;4.38;;
25341;SDS011;13298;48.792;9.154;2023-07-02T04:15:29;6.45;;;3.67;;
25341;SDS011;13298;48.792;9.154;2023-07-02T04:17:54;8.23;;;4.28;;
25341;SDS011;13298;48.792;9.154;2023-07-02T04:20:20;6.05;;;3.88;;
25341;SDS011;13298;48.792;9.154;2023-07-02T04:22:46;6.35;;;4.18;;
25341;SDS011;13298;48.792;9.154;2023-07-02T04:25:12;6.85;;;4.15;;
25341;SDS011;13298;48.792;9.154;2023-07-02T04:27:40;9.18;;;4.68;;
25341;SDS011;13298;48.792;9.154;2023-07-02T04:30:07;7.35;;;4.40;;
25341;SDS011;13298;48.792;9.154;2023-07-02T04:32:34;7.50;;;4.45;;
25341;SDS011;13298;48.792;9.154;2023-07-02T04:35:01;6.25;;;3.80;;
25341;SDS011;13298;48.792;9.154;2023-07-02T04:37:27;9.15;;;4.15;;
25341;SDS011;13298;48.792;9.154;2023-07-02T04:39:53;5.25;;;3.40;;
25341;SDS011;13298;48.792;9.154;2023-07-02T04:42:19;9.57;;;4.43;;
25341;SDS011;13298;48.792;9.154;2023-07-02T04:44:45;7.00;;;3.80;;
25341;SDS011;13298;48.792;9.154;2023-07-02T04:47:11;10.02;;;4.18;;
25341;SDS011;13298;48.792;9.154;2023-07-02T04:49:37;8.18;;;3.97;;
25341;SDS011;13298;48.792;9.154;2023-07-02T04:52:03;5.65;;;3.60;;
25341;SDS011;13298;48.792;9.154;2023-07-02T04:54:29;13.13;;;4.60;;
25341;SDS011;13298;48.792;9.154;2023-07-02T04:56:55;8.45;;;4.45;;
25341;SDS011;13298;48.792;9.154;2023-07-02T04:59:21;9.07;;;4.30;;
25341;SDS011;13298;48.792;9.154;2023-07-02T05:01:47;5.63;;;3.88;;
25341;SDS011;13298;48.792;9.154;2023-07-02T05:04:13;8.70;;;4.20;;
25341;SDS011;13298;48.792;9.154;2023-07-02T05:06:38;6.50;;;3.65;;
25341;SDS011;13298;48.792;9.154;2023-07-02T05:09:04;5.90;;;3.88;;
25341;SDS011;13298;48.792;9.154;2023-07-02T05:11:30;7.80;;;3.85;;
25341;SDS011;13298;48.792;9.154;2023-07-02T05:13:56;5.35;;;3.65;;
25341;SDS011;13298;48.792;9.154;2023-07-02T05:16:21;7.25;;;4.65;;
25341;SDS011;13298;48.792;9.154;2023-07-02T05:18:47;6.43;;;3.58;;
25341;SDS011;13298;48.792;9.154;2023-07-02T05:21:17;5.93;;;3.65;;
25341;SDS011;13298;48.792;9.154;2023-07-02T05:23:43;8.95;;;4.28;;
25341;SDS011;13298;48.792;9.154;2023-07-02T05:26:08;7.07;;;4.15;;
25341;SDS011;13298;48.792;9.154;2023-07-02T05:28:34;8.38;;;3.92;;
25341;SDS011;13298;48.792;9.154;2023-07-02T05:31:00;7.10;;;3.95;;
25341;SDS011;13298;48.792;9.154;2023-07-02T05:33:25;8.70;;;4.45;;
25341;SDS011;13298;48.792;9.154;2023-07-02T05:35:51;7.65;;;3.83;;
25341;SDS011;13298;48.792;9.154;2023-07-02T05:38:17;6.57;;;4.30;;
25341;SDS011;13298;48.792;9.154;2023-07-02T05:40:44;6.38;;;4.00;;
25341;SDS011;13298;48.792;9.154;2023-07-02T05:43:10;7.88;;;4.15;;
25341;SDS011;13298;48.792;9.154;2023-07-02T05:45:36;6.18;;;4.25;;
25341;SDS011;13298;48.792;9.154;2023-07-02T05:48:02;9.65;;;3.75;;
25341;SDS011;13298;48.792;9.154;2023-07-02T05:50:28;9.82;;;4.93;;
25341;SDS011;13298;48.792;9.154;2023-07-02T05:52:54;7.47;;;4.32;;
25341;SDS011;13298;48.792;9.154;2023-07-02T05:55:19;10.43;;;4.53;;
25341;SDS011;13298;48.792;9.154;2023-07-02T05:57:45;8.18;;;4.13;;
25341;SDS011;13298;48.792;9.154;2023-07-02T06:00:11;8.25;;;3.85;;
25341;SDS011;13298;48.792;9.154;2023-07-02T06:02:38;7.50;;;4.20;;
25341;SDS011;13298;48.792;9.154;2023-07-02T06:05:03;13.60;;;5.43;;
25341;SDS011;13298;48.792;9.154;2023-07-02T06:07:30;6.60;;;3.67;;
25341;SDS011;13298;48.792;9.154;2023-07-02T06:09:56;10.20;;;5.07;;
25341;SDS011;13298;48.792;9.154;2023-07-02T06:12:21;8.90;;;4.88;;
25341;SDS011;13298;48.792;9.154;2023-07-02T06:14:47;9.77;;;5.07;;
25341;SDS011;13298;48.792;9.154;2023-07-02T06:17:13;11.50;;;5.60;;
25341;SDS011;13298;48.792;9.154;2023-07-02T06:19:40;11.38;;;5.68;;
25341;SDS011;13298;48.792;9.154;2023-07-02T06:22:06;9.95;;;5.40;;
25341;SDS011;13298;48.792;9.154;2023-07-02T06:24:31;10.52;;;6.15;;
25341;SDS011;13298;48.792;9.154;2023-07-02T06:26:57;11.18;;;5.43;;
25341;SDS011;13298;48.792;9.154;2023-07-02T06:29:23;13.88;;;6.63;;
25341;SDS011;13298;48.792;9.154;2023-07-02T06:31:49;15.20;;;6.60;;
25341;SDS011;13298;48.792;9.154;2023-07-02T06:34:15;11.95;;;6.30;;
25341;SDS011;13298;48.792;9.154;2023-07-02T06:36:42;11.93;;;6.75;;
25341;SDS011;13298;48.792;9.154;2023-07-02T06:39:08;17.30;;;7.50;;
25341;SDS011;13298;48.792;9.154;2023-07-02T06:41:34;10.90;;;6.68;;
25341;SDS011;13298;48.792;9.154;2023-07-02T06:44:00;14.18;;;7.53;;
25341;SDS011;13298;48.792;9.154;2023-07-02T06:46:27;14.20;;;6.72;;
25341;SDS011;13298;48.792;9.154;2023-07-02T06:48:53;18.52;;;7.22;;
25341;SDS011;13298;48.792;9.154;2023-07-02T06:51:20;17.98;;;7.30;;
25341;SDS011;13298;48.792;9.154;2023-07-02T06:53:46;15.82;;;7.13;;
25341;SDS011;13298;48.792;9.154;2023-07-02T06:56:12;18.45;;;7.88;;
25341;SDS011;13298;48.792;9.154;2023-07-02T06:58:44;10.57;;;6.80;;
25341;SDS011;13298;48.792;9.154;2023-07-02T07:01:10;13.73;;;7.47;;
25341;SDS011;13298;48.792;9.154;2023-07-02T07:03:35;15.35;;;7.25;;
25341;SDS011;13298;48.792;9.154;2023-07-02T07:06:01;11.75;;;6.22;;
25341;SDS011;13298;48.792;9.154;2023-07-02T07:08:27;14.13;;;7.78;;
25341;SDS011;13298;48.792;9.154;2023-07-02T07:10:53;15.88;;;7.93;;
25341;SDS011;13298;48.792;9.154;2023-07-02T07:13:19;15.55;;;7.55;;
25341;SDS011;13298;48.792;9.154;2023-07-02T07:15:45;14.13;;;8.02;;
25341;SDS011;13298;48.792;9.154;2023-07-02T07:18:11;13.70;;;7.57;;
25341;SDS011;13298;48.792;9.154;2023-07-02T07:20:38;20.10;;;8.25;;
25341;SDS011;13298;48.792;9.154;2023-07-02T07:23:05;17.60;;;8.82;;
25341;SDS011;13298;48.792;9.154;2023-07-02T07:25:31;15.63;;;8.40;;
25341;SDS011;13298;48.792;9.154;2023-07-02T07:27:57;17.67;;;9.95;;
25341;SDS011;13298;48.792;9.154;2023-07-02T07:30:24;24.13;;;10.43;;
25341;SDS011;13298;48.792;9.154;2023-07-02T07:32:50;19.20;;;9.95;;
25341;SDS011;13298;48.792;9.154;2023-07-02T07:35:20;19.40;;;9.35;;
25341;SDS011;13298;48.792;9.154;2023-07-02T07:37:46;16.80;;;8.40;;
25341;SDS011;13298;48.792;9.154;2023-07-02T07:40:13;17.85;;;9.48;;
25341;SDS011;13298;48.792;9.154;2023-07-02T07:42:39;22.00;;;10.35;;
25341;SDS011;13298;48.792;9.154;2023-07-02T07:45:07;18.95;;;10.70;;
25341;SDS011;13298;48.792;9.154;2023-07-02T07:47:34;25.63;;;11.73;;
25341;SDS011;13298;48.792;9.154;2023-07-02T07:50:00;19.15;;;10.85;;
25341;SDS011;13298;48.792;9.154;2023-07-02T07:52:27;21.83;;;11.40;;
25341;SDS011;13298;48.792;9.154;2023-07-02T07:54:52;22.30;;;10.70;;
25341;SDS011;13298;48.792;9.154;2023-07-02T07:57:18;20.50;;;10.68;;
25341;SDS011;13298;48.792;9.154;2023-07-02T07:59:44;23.88;;;11.45;;
25341;SDS011;13298;48.792;9.154;2023-07-02T08:02:09;19.38;;;10.70;;
25341;SDS011;13298;48.792;9.154;2023-07-02T08:04:35;26.15;;;11.13;;
25341;SDS011;13298;48.792;9.154;2023-07-02T08:07:01;25.85;;;12.68;;
25341;SDS011;13298;48.792;9.154;2023-07-02T08:09:29;22.45;;;11.43;;
25341;SDS011;13298;48.792;9.154;2023-07-02T08:11:55;23.20;;;11.52;;
25341;SDS011;13298;48.792;9.154;2023-07-02T08:14:20;26.65;;;11.85;;
25341;SDS011;13298;48.792;9.154;2023-07-02T08:16:46;21.42;;;11.77;;
25341;SDS011;13298;48.792;9.154;2023-07-02T08:19:12;27.50;;;11.35;;
25341;SDS011;13298;48.792;9.154;2023-07-02T08:21:37;21.52;;;11.15;;
25341;SDS011;13298;48.792;9.154;2023-07-02T08:24:03;24.27;;;12.77;;
25341;SDS011;13298;48.792;9.154;2023-07-02T08:26:29;20.35;;;11.02;;
25341;SDS011;13298;48.792;9.154;2023-07-02T08:28:55;26.02;;;12.18;;
25341;SDS011;13298;48.792;9.154;2023-07-02T08:31:21;23.33;;;12.13;;
25341;SDS011;13298;48.792;9.154;2023-07-02T08:33:47;21.15;;;10.98;;
25341;SDS011;13298;48.792;9.154;2023-07-02T08:36:12;21.50;;;10.93;;
25341;SDS011;13298;48.792;9.154;2023-07-02T08:38:38;20.05;;;10.88;;
25341;SDS011;13298;48.792;9.154;2023-07-02T08:41:07;20.58;;;10.60;;
25341;SDS011;13298;48.792;9.154;2023-07-02T08:43:33;21.80;;;9.98;;
25341;SDS011;13298;48.792;9.154;2023-07-02T08:46:00;18.63;;;11.13;;
25341;SDS011;13298;48.792;9.154;2023-07-02T08:48:26;18.63;;;10.25;;
25341;SDS011;13298;48.792;9.154;2023-07-02T08:50:54;17.73;;;9.82;;
25341;SDS011;13298;48.792;9.154;2023-07-02T08:53:23;21.23;;;10.60;;
25341;SDS011;13298;48.792;9.154;2023-07-02T08:55:54;19.73;;;9.48;;
25341;SDS011;13298;48.792;9.154;2023-07-02T08:58:23;18.63;;;8.95;;
25341;SDS011;13298;48.792;9.154;2023-07-02T09:01:04;21.42;;;10.80;;
25341;SDS011;13298;48.792;9.154;2023-07-02T09:03:34;20.70;;;10.10;;
25341;SDS011;13298;48.792;9.154;2023-07-02T09:06:02;17.60;;;9.82;;
25341;SDS011;13298;48.792;9.154;2023-07-02T09:08:29;15.95;;;9.32;;
25341;SDS011;13298;48.792;9.154;2023-07-02T09:11:14;18.10;;;9.90;;
25341;SDS011;13298;48.792;9.154;2023-07-02T09:13:51;18.42;;;9.60;;
25341;SDS011;13298;48.792;9.154;2023-07-02T09:16:30;19.33;;;10.07;;
25341;SDS011;13298;48.792;9.154;2023-07-02T09:19:00;18.80;;;9.75;;
25341;SDS011;13298;48.792;9.154;2023-07-02T09:21:41;17.15;;;9.40;;
25341;SDS011;13298;48.792;9.154;2023-07-02T09:24:12;17.80;;;9.68;;
25341;SDS011;13298;48.792;9.154;2023-07-02T09:26:49;18.00;;;10.25;;
25341;SDS011;13298;48.792;9.154;2023-07-02T09:29:22;20.77;;;10.35;;
25341;SDS011;13298;48.792;9.154;2023-07-02T09:32:02;18.98;;;9.75;;
25341;SDS011;13298;48.792;9.154;2023-07-02T09:34:32;18.92;;;9.55;;
25341;SDS011;13298;48.792;9.154;2023-07-02T09:37:01;18.83;;;9.73;;
25341;SDS011;13298;48.792;9.154;2023-07-02T09:39:31;15.85;;;9.88;;
25341;SDS011;13298;48.792;9.154;2023-07-02T09:42:00;23.95;;;10.43;;
25341;SDS011;13298;48.792;9.154;2023-07-02T09:44:29;18.50;;;10.35;;
25341;SDS011;13298;48.792;9.154;2023-07-02T09:47:09;19.38;;;10.27;;
25341;SDS011;13298;48.792;9.154;2023-07-02T09:49:40;17.02;;;9.80;;
25341;SDS011;13298;48.792;9.154;2023-07-02T09:52:30;19.27;;;10.10;;
25341;SDS011;13298;48.792;9.154;2023-07-02T09:54:57;15.48;;;9.35;;
25341;SDS011;13298;48.792;9.154;2023-07-02T09:57:22;19.05;;;9.90;;
25341;SDS011;13298;48.792;9.154;2023-07-02T09:59:48;18.08;;;10.07;;
25341;SDS011;13298;48.792;9.154;2023-07-02T10:02:15;20.92;;;10.27;;
25341;SDS011;13298;48.792;9.154;2023-07-02T10:04:44;20.48;;;10.40;;
25341;SDS011;13298;48.792;9.154;2023-07-02T10:07:12;16.48;;;9.63;;
25341;SDS011;13298;48.792;9.154;2023-07-02T10:09:50;18.52;;;9.50;;
25341;SDS011;13298;48.792;9.154;2023-07-02T10:14:52;17.27;;;10.50;;
25341;SDS011;13298;48.792;9.154;2023-07-02T10:17:29;17.05;;;10.18;;
25341;SDS011;13298;48.792;9.154;2023-07-02T10:19:56;19.63;;;10.75;;
25341;SDS011;13298;48.792;9.154;2023-07-02T10:22:41;21.90;;;10.82;;
25341;SDS011;13298;48.792;9.154;2023-07-02T10:25:27;22.90;;;11.13;;
25341;SDS011;13298;48.792;9.154;2023-07-02T10:27:59;15.73;;;9.85;;
25341;SDS011;13298;48.792;9.154;2023-07-02T10:30:36;18.92;;;10.25;;
25341;SDS011;13298;48.792;9.154;2023-07-02T10:33:16;18.05;;;10.82;;
25341;SDS011;13298;48.792;9.154;2023-07-02T10:35:45;20.55;;;10.55;;
25341;SDS011;13298;48.792;9.154;2023-07-02T10:38:14;18.30;;;10.07;;
25341;SDS011;13298;48.792;9.154;2023-07-02T10:40:45;16.42;;;11.45;;
25341;SDS011;13298;48.792;9.154;2023-07-02T10:43:11;18.10;;;10.20;;
25341;SDS011;13298;48.792;9.154;2023-07-02T10:45:37;21.83;;;10.43;;
25341;SDS011;13298;48.792;9.154;2023-07-02T10:48:04;21.90;;;11.02;;
25341;SDS011;13298;48.792;9.154;2023-07-02T10:50:38;21.30;;;10.90;;
25341;SDS011;13298;48.792;9.154;2023-07-02T10:53:04;17.52;;;10.65;;
25341;SDS011;13298;48.792;9.154;2023-07-02T10:55:30;23.08;;;10.75;;
25341;SDS011;13298;48.792;9.154;2023-07-02T10:58:29;17.63;;;10.52;;
25341;SDS011;13298;48.792;9.154;2023-07-02T11:00:50;19.02;;;10.82;;
25341;SDS011;13298;48.792;9.154;2023-07-02T11:03:23;23.85;;;10.75;;
25341;SDS011;13298;48.792;9.154;2023-07-02T11:05:51;18.58;;;10.63;;
25341;SDS011;13298;48.792;9.154;2023-07-02T11:08:17;14.20;;;10.43;;
25341;SDS011;13298;48.792;9.154;2023-07-02T11:10:46;20.80;;;11.75;;
25341;SDS011;13298;48.792;9.154;2023-07-02T11:13:18;18.98;;;10.32;;
25341;SDS011;13298;48.792;9.154;2023-07-02T11:15:45;22.63;;;11.55;;
25341;SDS011;13298;48.792;9.154;2023-07-02T11:18:12;23.00;;;11.77;;
25341;SDS011;13298;48.792;9.154;2023-07-02T11:20:39;17.75;;;10.38;;
25341;SDS011;13298;48.792;9.154;2023-07-02T11:23:23;20.40;;;11.73;;
25341;SDS011;13298;48.792;9.154;2023-07-02T11:25:59;22.15;;;11.40;;
25341;SDS011;13298;48.792;9.154;2023-07-02T11:28:27;18.88;;;10.93;;
25341;SDS011;13298;48.792;9.154;2023-07-02T11:30:54;18.83;;;10.65;;
25341;SDS011;13298;48.792;9.154;2023-07-02T11:33:31;18.58;;;11.40;;
25341;SDS011;13298;48.792;9.154;2023-07-02T11:35:58;17.55;;;10.75;;
25341;SDS011;13298;48.792;9.154;2023-07-02T11:38:23;19.58;;;10.57;;
25341;SDS011;13298;48.792;9.154;2023-07-02T11:40:49;16.92;;;10.45;;
25341;SDS011;13298;48.792;9.154;2023-07-02T11:43:15;20.05;;;11.70;;
25341;SDS011;13298;48.792;9.154;2023-07-02T11:45:40;18.20;;;11.32;;
25341;SDS011;13298;48.792;9.154;2023-07-02T11:48:08;17.70;;;11.07;;
25341;SDS011;13298;48.792;9.154;2023-07-02T11:50:33;18.70;;;11.32;;
25341;SDS011;13298;48.792;9.154;2023-07-02T11:52:59;16.90;;;11.43;;
25341;SDS011;13298;48.792;9.154;2023-07-02T11:55:25;18.65;;;10.88;;
25341;SDS011;13298;48.792;9.154;2023-07-02T11:57:50;16.25;;;10.88;;
25341;SDS011;13298;48.792;9.154;2023-07-02T12:00:16;19.95;;;12.02;;
25341;SDS011;13298;48.792;9.154;2023-07-02T12:02:42;21.73;;;11.27;;
25341;SDS011;13298;48.792;9.154;2023-07-02T12:05:08;20.05;;;11.27;;
25341;SDS011;13298;48.792;9.154;2023-07-02T12:07:34;18.65;;;10.65;;
25341;SDS011;13298;48.792;9.154;2023-07-02T12:10:00;19.40;;;10.88;;
25341;SDS011;13298;48.792;9.154;2023-07-02T12:12:25;18.95;;;11.55;;
25341;SDS011;13298;48.792;9.154;2023-07-02T12:14:51;18.42;;;10.70;;
25341;SDS011;13298;48.792;9.154;2023-07-02T12:17:17;23.00;;;11.13;;
25341;SDS011;13298;48.792;9.154;2023-07-02T12:19:42;19.10;;;11.13;;
25341;SDS011;13298;48.792;9.154;2023-07-02T12:22:08;19.33;;;11.70;;
25341;SDS011;13298;48.792;9.154;2023-07-02T12:24:34;20.67;;;11.80;;
25341;SDS011;13298;48.792;9.154;2023-07-02T12:27:00;20.35;;;12.00;;
25341;SDS011;13298;48.792;9.154;2023-07-02T12:29:25;18.83;;;11.95;;
25341;SDS011;13298;48.792;9.154;2023-07-02T12:31:51;21.00;;;11.35;;
25341;SDS011;13298;48.792;9.154;2023-07-02T12:34:17;17.52;;;10.77;;
25341;SDS011;13298;48.792;9.154;2023-07-02T12:36:42;25.95;;;11.82;;
25341;SDS011;13298;48.792;9.154;2023-07-02T12:39:08;20.58;;;11.32;;
25341;SDS011;13298;48.792;9.154;2023-07-02T12:41:34;16.58;;;11.45;;
25341;SDS011;13298;48.792;9.154;2023-07-02T12:44:00;21.13;;;10.93;;
25341;SDS011;13298;48.792;9.154;2023-07-02T12:46:25;23.85;;;11.40;;
25341;SDS011;13298;48.792;9.154;2023-07-02T12:48:51;18.98;;;11.63;;
25341;SDS011;13298;48.792;9.154;2023-07-02T12:51:17;18.52;;;10.82;;
25341;SDS011;13298;48.792;9.154;2023-07-02T12:53:42;21.23;;;11.02;;
25341;SDS011;13298;48.792;9.154;2023-07-02T12:56:08;18.80;;;11.18;;
25341;SDS011;13298;48.792;9.154;2023-07-02T12:58:34;20.08;;;11.57;;
25341;SDS011;13298;48.792;9.154;2023-07-02T13:00:59;19.08;;;11.55;;
25341;SDS011;13298;48.792;9.154;2023-07-02T13:03:25;18.95;;;10.65;;
25341;SDS011;13298;48.792;9.154;2023-07-02T13:05:51;17.00;;;11.10;;
25341;SDS011;13298;48.792;9.154;2023-07-02T13:08:17;21.95;;;12.25;;
25341;SDS011;13298;48.792;9.154;2023-07-02T13:10:42;18.13;;;11.77;;
25341;SDS011;13298;48.792;9.154;2023-07-02T13:13:08;19.45;;;11.82;;
25341;SDS011;13298;48.792;9.154;2023-07-02T13:15:34;20.13;;;11.30;;
25341;SDS011;13298;48.792;9.154;2023-07-02T13:18:00;16.98;;;10.57;;
25341;SDS011;13298;48.792;9.154;2023-07-02T13:20:26;19.05;;;11.10;;
25341;SDS011;13298;48.792;9.154;2023-07-02T13:22:52;19.10;;;11.77;;
25341;SDS011;13298;48.792;9.154;2023-07-02T13:25:17;19.27;;;11.30;;
25341;SDS011;13298;48.792;9.154;2023-07-02T13:27:43;19.35;;;11.00;;
25341;SDS011;13298;48.792;9.154;2023-07-02T13:30:09;16.88;;;11.23;;
25341;SDS011;13298;48.792;9.154;2023-07-02T13:32:35;20.42;;;10.65;;
25341;SDS011;13298;48.792;9.154;2023-07-02T13:35:01;18.52;;;11.98;;
25341;SDS011;13298;48.792;9.154;2023-07-02T13:37:27;19.63;;;10.85;;
25341;SDS011;13298;48.792;9.154;2023-07-02T13:39:52;21.17;;;12.27;;
25341;SDS011;13298;48.792;9.154;2023-07-02T13:42:18;19.40;;;11.38;;
25341;SDS011;13298;48.792;9.154;2023-07-02T13:44:44;19.58;;;11.93;;
25341;SDS011;13298;48.792;9.154;2023-07-02T13:47:10;20.98;;;12.35;;
25341;SDS011;13298;48.792;9.154;2023-07-02T13:49:36;20.67;;;11.20;;
25341;SDS011;13298;48.792;9.154;2023-07-02T13:52:02;19.95;;;11.88;;
25341;SDS011;13298;48.792;9.154;2023-07-02T13:54:28;20.38;;;11.77;;
25341;SDS011;13298;48.792;9.154;2023-07-02T13:56:55;19.50;;;11.70;;
25341;SDS011;13298;48.792;9.154;2023-07-02T13:59:21;19.27;;;11.43;;
25341;SDS011;13298;48.792;9.154;2023-07-02T14:01:47;21.15;;;11.27;;
25341;SDS011;13298;48.792;9.154;2023-07-02T14:04:14;16.65;;;10.98;;
25341;SDS011;13298;48.792;9.154;2023-07-02T14:06:41;21.95;;;11.68;;
25341;SDS011;13298;48.792;9.154;2023-07-02T14:09:07;18.35;;;11.13;;
25341;SDS011;13298;48.792;9.154;2023-07-02T14:11:35;21.50;;;11.52;;
25341;SDS011;13298;48.792;9.154;2023-07-02T14:14:04;23.38;;;11.93;;
25341;SDS011;13298;48.792;9.154;2023-07-02T14:16:32;17.92;;;10.88;;
25341;SDS011;13298;48.792;9.154;2023-07-02T14:18:58;19.60;;;11.70;;
25341;SDS011;13298;48.792;9.154;2023-07-02T14:21:24;24.25;;;12.60;;
25341;SDS011;13298;48.792;9.154;2023-07-02T14:23:50;20.08;;;12.00;;
25341;SDS011;13298;48.792;9.154;2023-07-02T14:26:15;23.42;;;11.38;;
25341;SDS011;13298;48.792;9.154;2023-07-02T14:28:41;17.42;;;11.10;;
25341;SDS011;13298;48.792;9.154;2023-07-02T14:31:07;16.50;;;11.38;;
25341;SDS011;13298;48.792;9.154;2023-07-02T14:33:34;16.70;;;10.75;;
25341;SDS011;13298;48.792;9.154;2023-07-02T14:36:02;17.98;;;11.52;;
25341;SDS011;13298;48.792;9.154;2023-07-02T14:38:29;19.42;;;11.18;;